sensor_id;sensor_type;location;lat;lon;timestamp;temperature;humidity
6486;DHT22;3276;48.490;9.222;2023-05-10T00:01:25;14.10;55.00
6486;DHT22;3276;48.490;9.222;2023-05-10T00:03:50;14.10;55.00
6486;DHT22;3276;48.490;9.222;2023-05-10T00:06:16;14.00;54.30
6486;DHT22;3276;48.490;9.222;2023-05-10T00:08:42;14.00;55.10
6486;DHT22;3276;48.490;9.222;2023-05-10T00:11:07;14.00;56.20
6486;DHT22;3276;48.490;9.222;2023-05-10T00:13:33;13.90;57.50
6486;DHT22;3276;48.490;9.222;2023-05-10T00:15:58;13.90;58.00
6486;DHT22;3276;48.490;9.222;2023-05-10T00:18:24;13.90;58.30
6486;DHT22;3276;48.490;9.222;2023-05-10T00:20:49;13.90;59.60
6486;DHT22;3276;48.490;9.222;2023-05-10T00:23:15;13.80;58.30
6486;DHT22;3276;48.490;9.222;2023-05-10T00:25:41;13.70;59.70
6486;DHT22;3276;48.490;9.222;2023-05-10T00:28:06;13.60;61.70
6486;DHT22;3276;48.490;9.222;2023-05-10T00:30:32;13.60;61.70
6486;DHT22;3276;48.490;9.222;2023-05-10T00:32:57;13.60;61.20
6486;DHT22;3276;48.490;9.222;2023-05-10T00:35:23;13.70;61.80
6486;DHT22;3276;48.490;9.222;2023-05-10T00:37:49;13.70;61.80
6486;DHT22;3276;48.490;9.222;2023-05-10T00:40:14;13.70;62.70
6486;DHT22;3276;48.490;9.222;2023-05-10T00:42:40;13.70;62.30
6486;DHT22;3276;48.490;9.222;2023-05-10T00:45:06;13.70;62.60
6486;DHT22;3276;48.490;9.222;2023-05-10T00:47:32;13.80;62.60
6486;DHT22;3276;48.490;9.222;2023-05-10T00:49:58;13.70;61.50
6486;DHT22;3276;48.490;9.222;2023-05-10T00:52:26;13.60;61.50
6486;DHT22;3276;48.490;9.222;2023-05-10T00:54:52;13.60;64.40
6486;DHT22;3276;48.490;9.222;2023-05-10T00:57:18;13.60;64.50
6486;DHT22;3276;48.490;9.222;2023-05-10T00:59:44;13.60;64.50
6486;DHT22;3276;48.490;9.222;2023-05-10T01:02:10;13.60;64.50
6486;DHT22;3276;48.490;9.222;2023-05-10T01:04:37;13.50;64.40
6486;DHT22;3276;48.490;9.222;2023-05-10T01:07:03;13.50;64.40
6486;DHT22;3276;48.490;9.222;2023-05-10T01:09:29;13.40;64.40
6486;DHT22;3276;48.490;9.222;2023-05-10T01:11:54;13.50;66.00
6486;DHT22;3276;48.490;9.222;2023-05-10T01:14:21;13.50;64.90
6486;DHT22;3276;48.490;9.222;2023-05-10T01:16:48;13.50;64.50
6486;DHT22;3276;48.490;9.222;2023-05-10T01:19:22;13.60;64.60
6486;DHT22;3276;48.490;9.222;2023-05-10T01:39:15;13.50;60.10
6486;DHT22;3276;48.490;9.222;2023-05-10T01:42:07;13.50;60.70
6486;DHT22;3276;48.490;9.222;2023-05-10T01:47:43;13.60;60.50
6486;DHT22;3276;48.490;9.222;2023-05-10T01:50:15;13.40;59.50
6486;DHT22;3276;48.490;9.222;2023-05-10T01:52:42;13.40;61.60
6486;DHT22;3276;48.490;9.222;2023-05-10T01:55:16;13.40;60.50
6486;DHT22;3276;48.490;9.222;2023-05-10T01:57:44;13.40;60.20
6486;DHT22;3276;48.490;9.222;2023-05-10T02:00:12;13.40;60.50
6486;DHT22;3276;48.490;9.222;2023-05-10T02:02:40;13.30;60.20
6486;DHT22;3276;48.490;9.222;2023-05-10T02:05:08;13.30;59.50
6486;DHT22;3276;48.490;9.222;2023-05-10T02:07:35;13.20;59.10
6486;DHT22;3276;48.490;9.222;2023-05-10T02:10:03;13.30;60.90
6486;DHT22;3276;48.490;9.222;2023-05-10T02:12:30;13.20;60.20
6486;DHT22;3276;48.490;9.222;2023-05-10T02:14:57;13.20;60.50
6486;DHT22;3276;48.490;9.222;2023-05-10T02:17:25;13.30;60.00
6486;DHT22;3276;48.490;9.222;2023-05-10T02:19:51;13.20;60.10
6486;DHT22;3276;48.490;9.222;2023-05-10T02:22:18;13.10;62.00
6486;DHT22;3276;48.490;9.222;2023-05-10T02:24:45;13.20;62.20
6486;DHT22;3276;48.490;9.222;2023-05-10T02:27:12;13.10;63.10
6486;DHT22;3276;48.490;9.222;2023-05-10T02:29:38;13.00;62.70
6486;DHT22;3276;48.490;9.222;2023-05-10T02:32:05;13.10;61.50
6486;DHT22;3276;48.490;9.222;2023-05-10T02:34:31;13.10;61.10
6486;DHT22;3276;48.490;9.222;2023-05-10T02:36:57;13.10;59.90
6486;DHT22;3276;48.490;9.222;2023-05-10T02:39:25;13.00;59.10
6486;DHT22;3276;48.490;9.222;2023-05-10T02:41:52;13.00;60.00
6486;DHT22;3276;48.490;9.222;2023-05-10T02:44:19;13.00;59.50
6486;DHT22;3276;48.490;9.222;2023-05-10T02:46:45;13.00;58.90
6486;DHT22;3276;48.490;9.222;2023-05-10T02:49:12;13.00;58.00
6486;DHT22;3276;48.490;9.222;2023-05-10T02:51:46;12.90;59.40
6486;DHT22;3276;48.490;9.222;2023-05-10T02:54:19;12.90;59.80
6486;DHT22;3276;48.490;9.222;2023-05-10T02:56:53;13.00;59.70
6486;DHT22;3276;48.490;9.222;2023-05-10T02:59:21;12.90;58.80
6486;DHT22;3276;48.490;9.222;2023-05-10T03:01:47;12.90;58.70
6486;DHT22;3276;48.490;9.222;2023-05-10T03:04:12;12.90;59.20
6486;DHT22;3276;48.490;9.222;2023-05-10T03:06:38;12.80;58.70
6486;DHT22;3276;48.490;9.222;2023-05-10T03:09:04;12.80;60.00
6486;DHT22;3276;48.490;9.222;2023-05-10T03:14:37;12.80;59.60
6486;DHT22;3276;48.490;9.222;2023-05-10T03:17:22;12.80;58.70
6486;DHT22;3276;48.490;9.222;2023-05-10T03:19:57;12.70;63.40
6486;DHT22;3276;48.490;9.222;2023-05-10T03:22:42;12.60;63.60
6486;DHT22;3276;48.490;9.222;2023-05-10T03:25:11;12.70;61.50
6486;DHT22;3276;48.490;9.222;2023-05-10T03:27:40;12.60;62.40
6486;DHT22;3276;48.490;9.222;2023-05-10T03:30:08;12.60;62.50
6486;DHT22;3276;48.490;9.222;2023-05-10T03:32:35;12.70;61.80
6486;DHT22;3276;48.490;9.222;2023-05-10T03:35:06;12.80;63.00
6486;DHT22;3276;48.490;9.222;2023-05-10T03:37:31;12.90;61.10
6486;DHT22;3276;48.490;9.222;2023-05-10T03:39:57;13.00;60.10
6486;DHT22;3276;48.490;9.222;2023-05-10T03:42:22;13.00;59.80
6486;DHT22;3276;48.490;9.222;2023-05-10T03:44:48;13.00;60.00
6486;DHT22;3276;48.490;9.222;2023-05-10T03:47:14;13.10;60.10
6486;DHT22;3276;48.490;9.222;2023-05-10T03:49:40;13.10;59.20
6486;DHT22;3276;48.490;9.222;2023-05-10T03:52:05;13.20;58.90
6486;DHT22;3276;48.490;9.222;2023-05-10T03:54:31;13.20;59.00
6486;DHT22;3276;48.490;9.222;2023-05-10T03:56:57;13.20;57.60
6486;DHT22;3276;48.490;9.222;2023-05-10T03:59:23;13.20;58.50
6486;DHT22;3276;48.490;9.222;2023-05-10T04:01:48;13.20;58.00
6486;DHT22;3276;48.490;9.222;2023-05-10T04:04:14;13.20;58.40
6486;DHT22;3276;48.490;9.222;2023-05-10T04:06:39;13.30;58.50
6486;DHT22;3276;48.490;9.222;2023-05-10T04:09:05;13.30;58.40
6486;DHT22;3276;48.490;9.222;2023-05-10T04:11:30;13.30;57.90
6486;DHT22;3276;48.490;9.222;2023-05-10T04:13:56;13.30;57.00
6486;DHT22;3276;48.490;9.222;2023-05-10T04:16:22;13.30;56.60
6486;DHT22;3276;48.490;9.222;2023-05-10T04:18:47;13.30;58.20
6486;DHT22;3276;48.490;9.222;2023-05-10T04:21:14;13.20;57.70
6486;DHT22;3276;48.490;9.222;2023-05-10T04:23:40;13.30;57.40
6486;DHT22;3276;48.490;9.222;2023-05-10T04:26:06;13.30;56.90
6486;DHT22;3276;48.490;9.222;2023-05-10T04:28:31;13.30;56.70
6486;DHT22;3276;48.490;9.222;2023-05-10T04:31:09;13.10;57.10
6486;DHT22;3276;48.490;9.222;2023-05-10T04:33:35;13.00;55.80
6486;DHT22;3276;48.490;9.222;2023-05-10T04:36:01;13.10;56.60
6486;DHT22;3276;48.490;9.222;2023-05-10T04:38:27;13.10;56.10
6486;DHT22;3276;48.490;9.222;2023-05-10T04:40:53;13.20;55.70
6486;DHT22;3276;48.490;9.222;2023-05-10T04:43:19;13.30;55.50
6486;DHT22;3276;48.490;9.222;2023-05-10T04:45:44;13.30;55.10
6486;DHT22;3276;48.490;9.222;2023-05-10T04:48:10;13.40;54.40
6486;DHT22;3276;48.490;9.222;2023-05-10T04:50:36;13.20;52.20
6486;DHT22;3276;48.490;9.222;2023-05-10T04:53:02;13.20;53.40
6486;DHT22;3276;48.490;9.222;2023-05-10T04:55:27;13.30;51.80
6486;DHT22;3276;48.490;9.222;2023-05-10T04:57:53;13.40;52.30
6486;DHT22;3276;48.490;9.222;2023-05-10T05:00:22;13.50;50.70
6486;DHT22;3276;48.490;9.222;2023-05-10T05:02:47;13.60;51.70
6486;DHT22;3276;48.490;9.222;2023-05-10T05:05:13;13.50;50.10
6486;DHT22;3276;48.490;9.222;2023-05-10T05:07:38;13.60;51.10
6486;DHT22;3276;48.490;9.222;2023-05-10T05:10:08;13.50;50.60
6486;DHT22;3276;48.490;9.222;2023-05-10T05:12:34;13.40;51.10
6486;DHT22;3276;48.490;9.222;2023-05-10T05:15:00;13.50;51.20
6486;DHT22;3276;48.490;9.222;2023-05-10T05:17:25;13.50;51.30
6486;DHT22;3276;48.490;9.222;2023-05-10T05:19:51;13.50;50.70
6486;DHT22;3276;48.490;9.222;2023-05-10T05:22:16;13.50;51.80
6486;DHT22;3276;48.490;9.222;2023-05-10T05:24:42;13.50;52.10
6486;DHT22;3276;48.490;9.222;2023-05-10T05:27:07;13.60;51.60
6486;DHT22;3276;48.490;9.222;2023-05-10T05:29:33;13.70;52.20
6486;DHT22;3276;48.490;9.222;2023-05-10T05:31:59;13.90;50.60
6486;DHT22;3276;48.490;9.222;2023-05-10T05:34:24;14.00;50.40
6486;DHT22;3276;48.490;9.222;2023-05-10T05:36:50;14.00;48.30
6486;DHT22;3276;48.490;9.222;2023-05-10T05:39:16;14.20;48.70
6486;DHT22;3276;48.490;9.222;2023-05-10T05:41:41;14.20;46.90
6486;DHT22;3276;48.490;9.222;2023-05-10T05:44:07;14.20;46.70
6486;DHT22;3276;48.490;9.222;2023-05-10T05:46:33;14.10;45.60
6486;DHT22;3276;48.490;9.222;2023-05-10T05:48:58;14.10;46.10
6486;DHT22;3276;48.490;9.222;2023-05-10T05:51:24;14.20;47.70
6486;DHT22;3276;48.490;9.222;2023-05-10T05:53:50;14.20;48.80
6486;DHT22;3276;48.490;9.222;2023-05-10T05:56:16;14.10;47.30
6486;DHT22;3276;48.490;9.222;2023-05-10T05:58:42;13.80;49.20
6486;DHT22;3276;48.490;9.222;2023-05-10T06:01:08;13.80;50.70
6486;DHT22;3276;48.490;9.222;2023-05-10T06:03:34;13.60;51.20
6486;DHT22;3276;48.490;9.222;2023-05-10T06:05:59;13.60;51.60
6486;DHT22;3276;48.490;9.222;2023-05-10T06:08:25;13.40;53.50
6486;DHT22;3276;48.490;9.222;2023-05-10T06:10:51;13.50;54.20
6486;DHT22;3276;48.490;9.222;2023-05-10T06:13:16;13.60;53.30
6486;DHT22;3276;48.490;9.222;2023-05-10T06:15:42;13.70;50.90
6486;DHT22;3276;48.490;9.222;2023-05-10T06:18:07;13.80;50.20
6486;DHT22;3276;48.490;9.222;2023-05-10T06:20:33;14.10;50.20
6486;DHT22;3276;48.490;9.222;2023-05-10T06:22:58;14.10;48.20
6486;DHT22;3276;48.490;9.222;2023-05-10T06:25:24;14.20;46.60
6486;DHT22;3276;48.490;9.222;2023-05-10T06:27:49;14.20;46.00
6486;DHT22;3276;48.490;9.222;2023-05-10T06:30:16;14.30;46.30
6486;DHT22;3276;48.490;9.222;2023-05-10T06:32:41;14.30;47.30
6486;DHT22;3276;48.490;9.222;2023-05-10T06:35:09;14.30;47.10
6486;DHT22;3276;48.490;9.222;2023-05-10T06:37:35;14.20;47.10
6486;DHT22;3276;48.490;9.222;2023-05-10T06:40:00;14.30;47.70
6486;DHT22;3276;48.490;9.222;2023-05-10T06:42:26;14.40;43.80
6486;DHT22;3276;48.490;9.222;2023-05-10T06:44:52;14.20;45.00
6486;DHT22;3276;48.490;9.222;2023-05-10T06:47:18;14.50;44.50
6486;DHT22;3276;48.490;9.222;2023-05-10T06:49:44;14.30;43.90
6486;DHT22;3276;48.490;9.222;2023-05-10T06:52:09;14.60;44.70
6486;DHT22;3276;48.490;9.222;2023-05-10T06:54:35;15.00;42.40
6486;DHT22;3276;48.490;9.222;2023-05-10T06:57:00;15.00;39.80
6486;DHT22;3276;48.490;9.222;2023-05-10T06:59:28;15.20;39.90
6486;DHT22;3276;48.490;9.222;2023-05-10T07:01:53;15.50;38.60
6486;DHT22;3276;48.490;9.222;2023-05-10T07:04:19;15.60;38.50
6486;DHT22;3276;48.490;9.222;2023-05-10T07:06:45;15.80;36.10
6486;DHT22;3276;48.490;9.222;2023-05-10T07:09:11;15.90;35.80
6486;DHT22;3276;48.490;9.222;2023-05-10T07:11:37;16.20;35.00
6486;DHT22;3276;48.490;9.222;2023-05-10T07:14:03;15.80;33.30
6486;DHT22;3276;48.490;9.222;2023-05-10T07:16:28;15.50;34.90
6486;DHT22;3276;48.490;9.222;2023-05-10T07:18:54;15.10;35.50
6486;DHT22;3276;48.490;9.222;2023-05-10T07:21:19;15.20;37.00
6486;DHT22;3276;48.490;9.222;2023-05-10T07:23:45;15.00;36.10
6486;DHT22;3276;48.490;9.222;2023-05-10T07:26:10;15.10;37.70
6486;DHT22;3276;48.490;9.222;2023-05-10T07:28:36;15.20;38.10
6486;DHT22;3276;48.490;9.222;2023-05-10T07:31:03;14.90;39.20
6486;DHT22;3276;48.490;9.222;2023-05-10T07:33:28;15.00;38.00
6486;DHT22;3276;48.490;9.222;2023-05-10T07:35:54;14.80;40.00
6486;DHT22;3276;48.490;9.222;2023-05-10T07:38:19;14.80;39.60
6486;DHT22;3276;48.490;9.222;2023-05-10T07:40:45;14.90;40.60
6486;DHT22;3276;48.490;9.222;2023-05-10T07:43:10;15.00;39.60
6486;DHT22;3276;48.490;9.222;2023-05-10T07:45:36;15.00;38.30
6486;DHT22;3276;48.490;9.222;2023-05-10T07:48:01;15.00;39.00
6486;DHT22;3276;48.490;9.222;2023-05-10T07:50:27;15.00;37.70
6486;DHT22;3276;48.490;9.222;2023-05-10T07:52:53;15.10;37.60
6486;DHT22;3276;48.490;9.222;2023-05-10T07:55:18;15.30;36.00
6486;DHT22;3276;48.490;9.222;2023-05-10T07:57:45;15.60;36.70
6486;DHT22;3276;48.490;9.222;2023-05-10T08:00:12;15.60;36.00
6486;DHT22;3276;48.490;9.222;2023-05-10T08:02:39;15.70;36.50
6486;DHT22;3276;48.490;9.222;2023-05-10T08:05:05;15.90;33.80
6486;DHT22;3276;48.490;9.222;2023-05-10T08:07:30;15.70;34.30
6486;DHT22;3276;48.490;9.222;2023-05-10T08:09:56;15.80;33.60
6486;DHT22;3276;48.490;9.222;2023-05-10T08:12:22;16.00;31.90
6486;DHT22;3276;48.490;9.222;2023-05-10T08:14:47;16.00;32.20
6486;DHT22;3276;48.490;9.222;2023-05-10T08:17:13;16.00;31.70
6486;DHT22;3276;48.490;9.222;2023-05-10T08:19:38;16.10;33.60
6486;DHT22;3276;48.490;9.222;2023-05-10T08:22:04;16.10;31.70
6486;DHT22;3276;48.490;9.222;2023-05-10T08:24:29;16.40;32.30
6486;DHT22;3276;48.490;9.222;2023-05-10T08:26:55;16.50;30.50
6486;DHT22;3276;48.490;9.222;2023-05-10T08:29:20;16.70;28.60
6486;DHT22;3276;48.490;9.222;2023-05-10T08:31:46;16.80;28.50
6486;DHT22;3276;48.490;9.222;2023-05-10T08:34:12;17.00;27.40
6486;DHT22;3276;48.490;9.222;2023-05-10T08:36:37;17.20;25.80
6486;DHT22;3276;48.490;9.222;2023-05-10T08:39:03;17.50;26.00
6486;DHT22;3276;48.490;9.222;2023-05-10T08:41:29;17.30;25.00
6486;DHT22;3276;48.490;9.222;2023-05-10T08:43:59;17.40;24.90
6486;DHT22;3276;48.490;9.222;2023-05-10T08:46:29;17.30;24.10
6486;DHT22;3276;48.490;9.222;2023-05-10T08:48:57;17.70;23.80
6486;DHT22;3276;48.490;9.222;2023-05-10T08:51:25;18.20;22.60
6486;DHT22;3276;48.490;9.222;2023-05-10T08:53:52;18.10;21.50
6486;DHT22;3276;48.490;9.222;2023-05-10T08:56:18;17.80;21.50
6486;DHT22;3276;48.490;9.222;2023-05-10T08:58:45;18.10;21.80
6486;DHT22;3276;48.490;9.222;2023-05-10T09:01:12;18.00;21.00
6486;DHT22;3276;48.490;9.222;2023-05-10T09:03:39;18.40;21.10
6486;DHT22;3276;48.490;9.222;2023-05-10T09:06:05;18.50;19.90
6486;DHT22;3276;48.490;9.222;2023-05-10T09:08:30;18.20;19.70
6486;DHT22;3276;48.490;9.222;2023-05-10T09:10:56;18.20;21.10
6486;DHT22;3276;48.490;9.222;2023-05-10T09:13:23;17.90;20.70
6486;DHT22;3276;48.490;9.222;2023-05-10T09:15:49;17.60;21.10
6486;DHT22;3276;48.490;9.222;2023-05-10T09:18:16;17.70;21.60
6486;DHT22;3276;48.490;9.222;2023-05-10T09:20:41;17.30;23.10
6486;DHT22;3276;48.490;9.222;2023-05-10T09:23:07;17.30;22.20
6486;DHT22;3276;48.490;9.222;2023-05-10T09:25:33;17.00;22.80
6486;DHT22;3276;48.490;9.222;2023-05-10T09:27:59;17.00;22.30
6486;DHT22;3276;48.490;9.222;2023-05-10T09:30:29;17.00;22.80
6486;DHT22;3276;48.490;9.222;2023-05-10T09:32:57;16.80;22.60
6486;DHT22;3276;48.490;9.222;2023-05-10T09:35:25;16.70;21.20
6486;DHT22;3276;48.490;9.222;2023-05-10T09:37:53;17.10;21.70
6486;DHT22;3276;48.490;9.222;2023-05-10T09:40:21;17.30;21.00
6486;DHT22;3276;48.490;9.222;2023-05-10T09:43:11;17.60;22.00
6486;DHT22;3276;48.490;9.222;2023-05-10T09:45:41;17.80;20.20
6486;DHT22;3276;48.490;9.222;2023-05-10T09:48:06;17.80;19.40
6486;DHT22;3276;48.490;9.222;2023-05-10T09:50:32;18.50;19.70
6486;DHT22;3276;48.490;9.222;2023-05-10T09:53:02;18.80;19.20
6486;DHT22;3276;48.490;9.222;2023-05-10T09:55:45;19.00;18.60
6486;DHT22;3276;48.490;9.222;2023-05-10T09:58:12;19.70;16.30
6486;DHT22;3276;48.490;9.222;2023-05-10T10:00:43;19.30;16.00
6486;DHT22;3276;48.490;9.222;2023-05-10T10:03:17;19.50;14.50
6486;DHT22;3276;48.490;9.222;2023-05-10T10:05:44;19.60;13.70
6486;DHT22;3276;48.490;9.222;2023-05-10T10:08:10;19.10;13.40
6486;DHT22;3276;48.490;9.222;2023-05-10T10:10:36;18.60;14.40
6486;DHT22;3276;48.490;9.222;2023-05-10T10:13:01;18.00;16.70
6486;DHT22;3276;48.490;9.222;2023-05-10T10:15:27;17.30;19.10
6486;DHT22;3276;48.490;9.222;2023-05-10T10:17:53;16.90;21.50
6486;DHT22;3276;48.490;9.222;2023-05-10T10:20:20;16.60;24.50
6486;DHT22;3276;48.490;9.222;2023-05-10T10:22:47;16.30;25.90
6486;DHT22;3276;48.490;9.222;2023-05-10T10:25:15;16.20;27.30
6486;DHT22;3276;48.490;9.222;2023-05-10T10:30:25;16.50;27.80
6486;DHT22;3276;48.490;9.222;2023-05-10T10:35:43;16.50;28.70
6486;DHT22;3276;48.490;9.222;2023-05-10T10:38:12;16.70;28.70
6486;DHT22;3276;48.490;9.222;2023-05-10T10:40:38;16.70;27.40
6486;DHT22;3276;48.490;9.222;2023-05-10T10:43:25;17.00;27.40
6486;DHT22;3276;48.490;9.222;2023-05-10T10:46:14;17.00;25.70
6486;DHT22;3276;48.490;9.222;2023-05-10T10:48:41;17.50;25.30
6486;DHT22;3276;48.490;9.222;2023-05-10T10:51:13;17.20;24.50
6486;DHT22;3276;48.490;9.222;2023-05-10T10:53:40;17.60;23.70
6486;DHT22;3276;48.490;9.222;2023-05-10T10:56:11;17.70;22.40
6486;DHT22;3276;48.490;9.222;2023-05-10T10:58:39;17.90;22.10
6486;DHT22;3276;48.490;9.222;2023-05-10T11:01:16;17.90;21.90
6486;DHT22;3276;48.490;9.222;2023-05-10T11:04:16;18.40;22.00
6486;DHT22;3276;48.490;9.222;2023-05-10T11:06:44;18.80;20.70
6486;DHT22;3276;48.490;9.222;2023-05-10T11:09:11;19.10;18.30
6486;DHT22;3276;48.490;9.222;2023-05-10T11:11:54;19.10;18.50
6486;DHT22;3276;48.490;9.222;2023-05-10T11:14:23;19.40;19.00
6486;DHT22;3276;48.490;9.222;2023-05-10T11:16:49;19.40;17.40
6486;DHT22;3276;48.490;9.222;2023-05-10T11:19:16;19.20;17.90
6486;DHT22;3276;48.490;9.222;2023-05-10T11:24:30;20.60;16.50
6486;DHT22;3276;48.490;9.222;2023-05-10T11:26:56;20.50;14.90
6486;DHT22;3276;48.490;9.222;2023-05-10T11:29:22;20.10;15.30
6486;DHT22;3276;48.490;9.222;2023-05-10T11:31:49;19.40;16.20
6486;DHT22;3276;48.490;9.222;2023-05-10T11:34:26;18.20;14.50
6486;DHT22;3276;48.490;9.222;2023-05-10T11:36:53;17.50;16.70
6486;DHT22;3276;48.490;9.222;2023-05-10T11:39:29;16.80;16.80
6486;DHT22;3276;48.490;9.222;2023-05-10T11:41:55;16.20;17.50
6486;DHT22;3276;48.490;9.222;2023-05-10T11:44:20;15.80;18.00
6486;DHT22;3276;48.490;9.222;2023-05-10T11:46:46;15.40;20.30
6486;DHT22;3276;48.490;9.222;2023-05-10T11:49:12;15.60;20.50
6486;DHT22;3276;48.490;9.222;2023-05-10T11:51:38;15.80;21.20
6486;DHT22;3276;48.490;9.222;2023-05-10T11:54:09;16.00;18.20
6486;DHT22;3276;48.490;9.222;2023-05-10T11:56:36;16.40;18.90
6486;DHT22;3276;48.490;9.222;2023-05-10T11:59:03;16.60;17.50
6486;DHT22;3276;48.490;9.222;2023-05-10T12:01:29;16.60;17.20
6486;DHT22;3276;48.490;9.222;2023-05-10T12:03:57;16.40;18.50
6486;DHT22;3276;48.490;9.222;2023-05-10T12:06:27;16.20;20.00
6486;DHT22;3276;48.490;9.222;2023-05-10T12:08:54;16.20;21.40
6486;DHT22;3276;48.490;9.222;2023-05-10T12:11:23;16.60;22.20
6486;DHT22;3276;48.490;9.222;2023-05-10T12:13:50;16.60;21.70
6486;DHT22;3276;48.490;9.222;2023-05-10T12:18:42;16.60;22.90
6486;DHT22;3276;48.490;9.222;2023-05-10T12:21:10;16.40;22.70
6486;DHT22;3276;48.490;9.222;2023-05-10T12:23:37;16.30;21.10
6486;DHT22;3276;48.490;9.222;2023-05-10T12:26:03;16.20;21.20
6486;DHT22;3276;48.490;9.222;2023-05-10T12:28:33;16.50;21.30
6486;DHT22;3276;48.490;9.222;2023-05-10T12:31:02;16.60;21.00
6486;DHT22;3276;48.490;9.222;2023-05-10T12:33:38;17.10;20.20
6486;DHT22;3276;48.490;9.222;2023-05-10T12:36:04;17.00;18.40
6486;DHT22;3276;48.490;9.222;2023-05-10T12:38:41;17.30;18.30
6486;DHT22;3276;48.490;9.222;2023-05-10T12:41:11;17.40;16.60
6486;DHT22;3276;48.490;9.222;2023-05-10T12:43:37;17.30;16.60
6486;DHT22;3276;48.490;9.222;2023-05-10T12:46:14;17.40;15.60
6486;DHT22;3276;48.490;9.222;2023-05-10T12:48:41;17.70;13.60
6486;DHT22;3276;48.490;9.222;2023-05-10T12:51:07;18.20;14.40
6486;DHT22;3276;48.490;9.222;2023-05-10T12:53:38;18.00;14.70
6486;DHT22;3276;48.490;9.222;2023-05-10T12:56:05;18.00;14.50
6486;DHT22;3276;48.490;9.222;2023-05-10T12:58:31;18.40;14.40
6486;DHT22;3276;48.490;9.222;2023-05-10T13:00:57;18.50;15.10
6486;DHT22;3276;48.490;9.222;2023-05-10T13:03:23;18.30;14.60
6486;DHT22;3276;48.490;9.222;2023-05-10T13:05:49;18.30;13.20
6486;DHT22;3276;48.490;9.222;2023-05-10T13:08:14;18.70;13.00
6486;DHT22;3276;48.490;9.222;2023-05-10T13:10:40;18.90;13.60
6486;DHT22;3276;48.490;9.222;2023-05-10T13:13:06;19.00;12.30
6486;DHT22;3276;48.490;9.222;2023-05-10T13:15:33;18.70;12.50
6486;DHT22;3276;48.490;9.222;2023-05-10T13:17:58;19.10;12.70
6486;DHT22;3276;48.490;9.222;2023-05-10T13:20:25;18.60;11.50
6486;DHT22;3276;48.490;9.222;2023-05-10T13:22:50;18.00;13.30
6486;DHT22;3276;48.490;9.222;2023-05-10T13:25:16;17.90;13.10
6486;DHT22;3276;48.490;9.222;2023-05-10T13:27:42;18.10;13.70
6486;DHT22;3276;48.490;9.222;2023-05-10T13:30:08;18.20;12.90
6486;DHT22;3276;48.490;9.222;2023-05-10T13:32:34;18.10;12.90
6486;DHT22;3276;48.490;9.222;2023-05-10T13:35:00;18.40;13.60
6486;DHT22;3276;48.490;9.222;2023-05-10T13:37:26;18.40;13.40
6486;DHT22;3276;48.490;9.222;2023-05-10T13:39:51;18.50;13.90
6486;DHT22;3276;48.490;9.222;2023-05-10T13:42:17;18.60;12.50
6486;DHT22;3276;48.490;9.222;2023-05-10T13:44:43;18.50;13.00
6486;DHT22;3276;48.490;9.222;2023-05-10T13:47:09;18.50;12.90
6486;DHT22;3276;48.490;9.222;2023-05-10T13:49:35;18.20;13.20
6486;DHT22;3276;48.490;9.222;2023-05-10T13:52:01;17.60;13.80
6486;DHT22;3276;48.490;9.222;2023-05-10T13:54:38;17.70;14.00
6486;DHT22;3276;48.490;9.222;2023-05-10T13:57:04;17.80;14.10
6486;DHT22;3276;48.490;9.222;2023-05-10T13:59:30;17.80;14.90
6486;DHT22;3276;48.490;9.222;2023-05-10T14:01:57;18.10;12.60
6486;DHT22;3276;48.490;9.222;2023-05-10T14:04:23;17.90;13.70
6486;DHT22;3276;48.490;9.222;2023-05-10T14:06:48;18.00;13.50
6486;DHT22;3276;48.490;9.222;2023-05-10T14:09:14;18.30;13.80
6486;DHT22;3276;48.490;9.222;2023-05-10T14:11:39;18.40;13.70
6486;DHT22;3276;48.490;9.222;2023-05-10T14:14:08;18.30;13.30
6486;DHT22;3276;48.490;9.222;2023-05-10T14:16:34;18.60;12.20
6486;DHT22;3276;48.490;9.222;2023-05-10T14:19:00;18.00;13.20
6486;DHT22;3276;48.490;9.222;2023-05-10T14:21:27;17.70;11.90
6486;DHT22;3276;48.490;9.222;2023-05-10T14:23:54;18.30;12.00
6486;DHT22;3276;48.490;9.222;2023-05-10T14:26:20;18.80;11.80
6486;DHT22;3276;48.490;9.222;2023-05-10T14:28:46;18.80;11.30
6486;DHT22;3276;48.490;9.222;2023-05-10T14:31:12;19.30;11.60
6486;DHT22;3276;48.490;9.222;2023-05-10T14:33:38;19.10;11.50
6486;DHT22;3276;48.490;9.222;2023-05-10T14:36:04;19.40;11.30
6486;DHT22;3276;48.490;9.222;2023-05-10T14:38:29;19.30;10.60
6486;DHT22;3276;48.490;9.222;2023-05-10T14:40:55;19.00;11.00
6486;DHT22;3276;48.490;9.222;2023-05-10T14:43:20;18.90;10.50
6486;DHT22;3276;48.490;9.222;2023-05-10T14:45:46;18.80;11.30
6486;DHT22;3276;48.490;9.222;2023-05-10T14:48:12;18.60;11.10
6486;DHT22;3276;48.490;9.222;2023-05-10T14:50:43;18.00;11.30
6486;DHT22;3276;48.490;9.222;2023-05-10T14:53:08;18.10;11.40
6486;DHT22;3276;48.490;9.222;2023-05-10T14:55:34;17.90;11.40
6486;DHT22;3276;48.490;9.222;2023-05-10T14:58:01;17.70;12.90
6486;DHT22;3276;48.490;9.222;2023-05-10T15:00:28;17.60;13.20
6486;DHT22;3276;48.490;9.222;2023-05-10T15:02:53;18.00;12.80
6486;DHT22;3276;48.490;9.222;2023-05-10T15:05:19;18.00;13.70
6486;DHT22;3276;48.490;9.222;2023-05-10T15:07:45;17.90;12.60
6486;DHT22;3276;48.490;9.222;2023-05-10T15:10:11;18.00;13.20
6486;DHT22;3276;48.490;9.222;2023-05-10T15:12:37;18.20;13.50
6486;DHT22;3276;48.490;9.222;2023-05-10T15:15:03;18.30;12.70
6486;DHT22;3276;48.490;9.222;2023-05-10T15:17:29;18.30;13.60
6486;DHT22;3276;48.490;9.222;2023-05-10T15:19:55;18.20;14.00
6486;DHT22;3276;48.490;9.222;2023-05-10T15:22:20;18.40;12.40
6486;DHT22;3276;48.490;9.222;2023-05-10T15:24:47;18.50;12.60
6486;DHT22;3276;48.490;9.222;2023-05-10T15:27:12;18.50;12.80
6486;DHT22;3276;48.490;9.222;2023-05-10T15:29:38;18.50;12.50
6486;DHT22;3276;48.490;9.222;2023-05-10T15:32:04;18.50;11.00
6486;DHT22;3276;48.490;9.222;2023-05-10T15:34:29;18.60;11.10
6486;DHT22;3276;48.490;9.222;2023-05-10T15:36:55;18.60;11.30
6486;DHT22;3276;48.490;9.222;2023-05-10T15:39:20;18.30;11.70
6486;DHT22;3276;48.490;9.222;2023-05-10T15:41:46;18.20;11.10
6486;DHT22;3276;48.490;9.222;2023-05-10T15:44:12;18.20;11.50
6486;DHT22;3276;48.490;9.222;2023-05-10T15:46:38;18.30;11.80
6486;DHT22;3276;48.490;9.222;2023-05-10T15:49:03;18.40;11.50
6486;DHT22;3276;48.490;9.222;2023-05-10T15:51:29;18.30;12.70
6486;DHT22;3276;48.490;9.222;2023-05-10T15:53:55;18.20;11.80
6486;DHT22;3276;48.490;9.222;2023-05-10T15:56:21;17.70;12.50
6486;DHT22;3276;48.490;9.222;2023-05-10T15:58:47;17.70;12.90
6486;DHT22;3276;48.490;9.222;2023-05-10T16:01:13;17.30;13.90
6486;DHT22;3276;48.490;9.222;2023-05-10T16:03:38;16.90;14.50
6486;DHT22;3276;48.490;9.222;2023-05-10T16:06:04;16.80;14.40
6486;DHT22;3276;48.490;9.222;2023-05-10T16:08:30;16.80;14.30
6486;DHT22;3276;48.490;9.222;2023-05-10T16:10:58;16.70;14.60
6486;DHT22;3276;48.490;9.222;2023-05-10T16:13:23;16.70;15.00
6486;DHT22;3276;48.490;9.222;2023-05-10T16:15:49;16.70;14.30
6486;DHT22;3276;48.490;9.222;2023-05-10T16:18:14;16.70;15.10
6486;DHT22;3276;48.490;9.222;2023-05-10T16:20:42;16.50;16.00
6486;DHT22;3276;48.490;9.222;2023-05-10T16:23:08;16.20;16.30
6486;DHT22;3276;48.490;9.222;2023-05-10T16:25:35;16.20;16.80
6486;DHT22;3276;48.490;9.222;2023-05-10T16:28:01;16.20;17.20
6486;DHT22;3276;48.490;9.222;2023-05-10T16:30:26;16.30;17.90
6486;DHT22;3276;48.490;9.222;2023-05-10T16:32:55;16.40;17.30
6486;DHT22;3276;48.490;9.222;2023-05-10T16:35:21;16.30;17.30